createdAt,value
2018-05-08T00:01:58.092Z,15.90
2018-05-08T00:04:25.597Z,16.00
2018-05-08T00:06:53.132Z,15.90
2018-05-08T00:09:20.636Z,15.80
2018-05-08T00:11:48.130Z,15.80
2018-05-08T00:14:15.650Z,15.70
2018-05-08T00:16:43.140Z,15.70
2018-05-08T00:19:10.667Z,15.60
2018-05-08T00:21:38.929Z,15.50
2018-05-08T00:24:06.463Z,15.50
2018-05-08T00:26:33.968Z,15.40
2018-05-08T00:29:01.493Z,15.40
2018-05-08T00:31:28.995Z,15.40
2018-05-08T00:33:56.541Z,15.40
2018-05-08T00:36:24.045Z,15.30
2018-05-08T00:38:51.569Z,15.30
2018-05-08T00:41:19.057Z,15.30
2018-05-08T00:43:46.591Z,15.30
2018-05-08T00:46:14.851Z,15.20
2018-05-08T00:48:42.370Z,15.20
2018-05-08T00:51:09.873Z,15.10
2018-05-08T00:53:37.416Z,15.10
2018-05-08T00:56:04.926Z,15.10
2018-05-08T00:58:32.441Z,15.10
2018-05-08T01:00:59.950Z,15.10
2018-05-08T01:03:27.469Z,15.10
2018-05-08T01:05:55.746Z,15.10
2018-05-08T01:08:23.291Z,15.10
2018-05-08T01:10:50.813Z,15.20
2018-05-08T01:13:19.133Z,15.10
2018-05-08T01:15:46.645Z,15.10
2018-05-08T01:18:14.188Z,15.10
2018-05-08T01:20:41.684Z,15.10
2018-05-08T01:23:09.207Z,15.10
2018-05-08T01:25:36.703Z,15.20
2018-05-08T01:28:04.234Z,15.30
2018-05-08T01:30:31.731Z,15.30
2018-05-08T01:32:59.276Z,15.30
2018-05-08T01:35:27.551Z,15.40
2018-05-08T01:37:55.862Z,15.30
2018-05-08T01:40:23.352Z,15.30
2018-05-08T01:42:50.889Z,15.40
2018-05-08T01:45:19.191Z,15.30
2018-05-08T01:47:46.701Z,15.30
2018-05-08T01:50:14.230Z,15.30
2018-05-08T01:52:42.505Z,15.30
2018-05-08T01:55:10.811Z,15.20
2018-05-08T01:57:39.081Z,15.20
2018-05-08T02:00:06.603Z,15.20
2018-05-08T02:02:34.163Z,15.10
2018-05-08T02:05:01.697Z,15.10
2018-05-08T02:07:29.986Z,14.90
2018-05-08T02:09:58.279Z,14.80
2018-05-08T02:12:26.566Z,14.60
2018-05-08T02:14:54.892Z,14.60
2018-05-08T02:17:22.393Z,14.60
2018-05-08T02:19:49.937Z,14.50
2018-05-08T02:22:17.427Z,14.50
2018-05-08T02:24:44.944Z,14.50
2018-05-08T02:27:13.216Z,14.30
2018-05-08T02:29:40.736Z,14.30
2018-05-08T02:32:08.240Z,14.30
2018-05-08T02:34:35.762Z,14.30
2018-05-08T02:37:03.264Z,14.20
2018-05-08T02:39:30.803Z,14.20
2018-05-08T02:41:59.065Z,14.10
2018-05-08T02:44:26.598Z,14.10
2018-05-08T02:46:54.083Z,14.10
2018-05-08T02:49:21.720Z,14.00
2018-05-08T02:51:49.243Z,13.90
2018-05-08T02:54:16.765Z,13.80
2018-05-08T02:56:44.305Z,13.80
2018-05-08T02:59:12.600Z,13.70
2018-05-08T03:01:40.863Z,13.60
2018-05-08T03:04:08.378Z,13.60
2018-05-08T03:06:35.870Z,13.50
2018-05-08T03:09:03.384Z,13.40
2018-05-08T03:11:30.905Z,13.40
2018-05-08T03:13:58.445Z,13.50
2018-05-08T03:16:26.712Z,13.30
2018-05-08T03:18:54.237Z,13.30
2018-05-08T03:21:21.738Z,13.30
2018-05-08T03:23:49.323Z,13.20
2018-05-08T03:26:16.834Z,13.20
2018-05-08T03:28:44.355Z,13.20
2018-05-08T03:31:11.893Z,13.20
2018-05-08T03:33:39.396Z,13.10
2018-05-08T03:36:06.924Z,13.00
2018-05-08T03:38:34.433Z,13.00
2018-05-08T03:41:01.962Z,13.00
2018-05-08T03:43:30.235Z,12.90
2018-05-08T03:45:58.533Z,12.90
2018-05-08T03:48:26.049Z,12.90
2018-05-08T03:50:53.585Z,12.80
2018-05-08T03:53:21.888Z,12.80
2018-05-08T03:55:50.505Z,12.70
2018-05-08T03:58:17.999Z,12.70
2018-05-08T04:00:57.529Z,12.70
2018-05-08T04:03:36.923Z,12.80
2018-05-08T04:06:17.826Z,12.80
2018-05-08T04:08:46.124Z,12.90
2018-05-08T04:11:13.666Z,12.80
2018-05-08T04:13:41.179Z,13.10
2018-05-08T04:16:08.695Z,13.30
2018-05-08T04:18:36.202Z,13.30
2018-05-08T04:21:04.540Z,13.30
2018-05-08T04:23:32.857Z,13.30
2018-05-08T04:26:00.386Z,13.30
2018-05-08T04:28:27.885Z,13.60
2018-05-08T04:30:55.404Z,14.20
2018-05-08T04:33:22.952Z,14.80
2018-05-08T04:35:50.500Z,15.20
2018-05-08T04:38:18.034Z,15.60
2018-05-08T04:40:45.578Z,16.00
2018-05-08T04:43:13.839Z,16.10
2018-05-08T04:45:41.362Z,16.10
2018-05-08T04:48:08.856Z,16.80
2018-05-08T04:50:36.397Z,17.50
2018-05-08T04:53:03.904Z,17.80
2018-05-08T04:55:31.433Z,18.30
2018-05-08T04:57:59.708Z,18.40
2018-05-08T05:00:27.281Z,18.40
2018-05-08T05:02:55.545Z,18.00
2018-05-08T05:05:23.086Z,18.00
2018-05-08T05:07:50.592Z,18.20
2018-05-08T05:10:18.125Z,18.30
2018-05-08T05:12:45.616Z,18.30
2018-05-08T05:15:13.138Z,18.00
2018-05-08T05:17:41.400Z,18.00
2018-05-08T05:20:08.936Z,18.00
2018-05-08T05:22:36.437Z,18.10
2018-05-08T05:25:03.937Z,18.40
2018-05-08T05:27:32.243Z,18.20
2018-05-08T05:30:00.544Z,18.50
2018-05-08T05:32:28.080Z,18.40
2018-05-08T05:34:56.353Z,18.60
2018-05-08T05:37:23.876Z,18.60
2018-05-08T05:39:51.399Z,19.20
2018-05-08T05:42:18.922Z,19.50
2018-05-08T05:44:46.429Z,19.60
2018-05-08T05:47:13.966Z,19.90
2018-05-08T05:49:41.474Z,19.90
2018-05-08T05:52:09.022Z,20.00
2018-05-08T05:54:36.511Z,20.30
2018-05-08T05:57:04.030Z,19.90
2018-05-08T05:59:32.313Z,19.90
2018-05-08T06:02:00.619Z,20.30
2018-05-08T06:04:28.124Z,20.30
2018-05-08T06:06:55.666Z,20.50
2018-05-08T06:09:23.175Z,20.60
2018-05-08T06:11:50.715Z,20.80
2018-05-08T06:14:18.233Z,20.30
2018-05-08T06:16:45.786Z,19.90
2018-05-08T06:19:13.283Z,20.50
2018-05-08T06:21:40.830Z,21.10
2018-05-08T06:24:08.320Z,21.00
2018-05-08T06:26:35.923Z,20.60
2018-05-08T06:29:03.346Z,20.30
2018-05-08T06:31:30.889Z,20.10
2018-05-08T06:33:58.402Z,20.00
2018-05-08T06:36:25.935Z,19.80
2018-05-08T06:38:53.438Z,19.10
2018-05-08T06:41:20.962Z,19.30
2018-05-08T06:43:48.487Z,19.40
2018-05-08T06:46:16.052Z,19.50
2018-05-08T06:48:43.569Z,19.50
2018-05-08T06:51:11.129Z,19.30
2018-05-08T06:53:39.402Z,19.70
2018-05-08T06:56:06.930Z,19.60
2018-05-08T06:58:34.433Z,19.70
2018-05-08T07:01:01.950Z,19.50
2018-05-08T07:03:29.464Z,19.50
2018-05-08T07:05:56.973Z,19.20
2018-05-08T07:08:25.255Z,20.00
2018-05-08T07:10:53.552Z,20.30
2018-05-08T07:13:21.837Z,20.40
2018-05-08T07:15:50.189Z,20.30
2018-05-08T07:18:18.445Z,20.50
2018-05-08T07:20:45.962Z,20.50
2018-05-08T07:23:13.517Z,20.70
2018-05-08T07:25:41.029Z,21.00
2018-05-08T07:28:09.329Z,20.50
2018-05-08T07:30:37.633Z,20.70
2018-05-08T07:33:05.165Z,20.70
2018-05-08T07:35:32.683Z,21.40
2018-05-08T07:38:00.225Z,21.60
2018-05-08T07:40:28.509Z,21.10
2018-05-08T07:42:56.043Z,21.10
2018-05-08T07:45:23.634Z,20.90
2018-05-08T07:47:51.088Z,20.90
2018-05-08T07:50:18.633Z,21.20
2018-05-08T07:52:46.161Z,21.40
2018-05-08T07:55:14.432Z,21.40
2018-05-08T07:57:41.987Z,21.30
2018-05-08T08:00:09.485Z,21.20
2018-05-08T08:02:37.011Z,21.20
2018-05-08T08:05:04.526Z,21.10
2018-05-08T08:07:32.070Z,20.70
2018-05-08T08:09:59.576Z,20.90
2018-05-08T08:12:27.247Z,21.30
2018-05-08T08:14:54.700Z,21.20
2018-05-08T08:17:22.227Z,21.50
2018-05-08T08:19:49.729Z,21.70
2018-05-08T08:22:17.281Z,22.10
2018-05-08T08:24:44.884Z,21.60
2018-05-08T08:27:12.730Z,21.60
2018-05-08T08:29:40.253Z,21.40
2018-05-08T08:32:07.809Z,21.70
2018-05-08T08:34:35.343Z,21.70
2018-05-08T08:37:02.868Z,22.00
2018-05-08T08:39:30.631Z,21.90
2018-05-08T08:41:58.152Z,21.70
2018-05-08T08:44:26.043Z,21.90
2018-05-08T08:46:53.584Z,22.30
2018-05-08T08:49:22.167Z,22.80
2018-05-08T08:51:51.043Z,22.80
2018-05-08T08:54:18.592Z,22.60
2018-05-08T08:56:46.416Z,22.60
2018-05-08T08:59:14.079Z,22.80
2018-05-08T09:01:41.592Z,22.90
2018-05-08T09:04:09.906Z,22.80
2018-05-08T09:06:37.599Z,22.80
2018-05-08T09:09:06.044Z,22.60
2018-05-08T09:11:33.593Z,22.70
2018-05-08T09:14:01.148Z,22.70
2018-05-08T09:16:29.426Z,22.80
2018-05-08T09:18:56.958Z,22.80
2018-05-08T09:21:25.240Z,22.90
2018-05-08T09:23:53.557Z,22.90
2018-05-08T09:26:21.070Z,22.80
2018-05-08T09:28:48.597Z,23.10
2018-05-08T09:31:16.120Z,23.20
2018-05-08T09:33:44.439Z,22.90
2018-05-08T09:36:11.981Z,22.90
2018-05-08T09:38:39.505Z,23.20
2018-05-08T09:41:07.021Z,23.20
2018-05-08T09:43:34.550Z,23.50
2018-05-08T09:46:02.101Z,23.10
2018-05-08T09:48:30.410Z,23.20
2018-05-08T09:50:57.930Z,23.20
2018-05-08T09:53:25.497Z,23.30
2018-05-08T09:55:53.013Z,23.40
2018-05-08T09:58:20.541Z,23.70
2018-05-08T10:00:48.051Z,23.70
2018-05-08T10:03:16.375Z,24.00
2018-05-08T10:05:43.884Z,24.00
2018-05-08T10:08:11.415Z,24.10
2018-05-08T10:10:38.925Z,24.10
2018-05-08T10:13:06.494Z,24.10
2018-05-08T10:15:34.004Z,23.80
2018-05-08T10:18:02.323Z,24.50
2018-05-08T10:20:29.830Z,24.40
2018-05-08T10:22:57.399Z,24.30
2018-05-08T10:25:24.901Z,24.40
2018-05-08T10:27:52.431Z,24.50
2018-05-08T10:30:19.956Z,24.70
2018-05-08T10:32:48.261Z,24.90
2018-05-08T10:35:15.831Z,24.90
2018-05-08T10:37:43.340Z,24.60
2018-05-08T10:40:10.897Z,24.50
2018-05-08T10:42:38.462Z,24.70
2018-05-08T10:45:05.947Z,24.50
2018-05-08T10:47:33.468Z,24.40
2018-05-08T10:50:01.784Z,24.90
2018-05-08T10:52:29.291Z,24.90
2018-05-08T10:54:56.836Z,24.60
2018-05-08T10:57:24.342Z,25.00
2018-05-08T10:59:52.646Z,25.50
2018-05-08T11:02:20.165Z,25.50
2018-05-08T11:04:47.688Z,25.50
2018-05-08T11:07:15.226Z,24.90
2018-05-08T11:09:42.759Z,24.90
2018-05-08T11:12:10.289Z,25.10
2018-05-08T11:14:37.916Z,25.40
2018-05-08T11:17:05.429Z,25.10
2018-05-08T11:19:32.957Z,25.30
2018-05-08T11:22:00.501Z,25.30
2018-05-08T11:24:28.793Z,25.90
2018-05-08T11:26:57.077Z,25.70
2018-05-08T11:29:25.404Z,25.70
2018-05-08T11:31:52.884Z,25.60
2018-05-08T11:34:20.434Z,25.90
2018-05-08T11:36:47.937Z,25.60
2018-05-08T11:39:16.281Z,25.00
2018-05-08T11:41:43.750Z,25.00
2018-05-08T11:44:12.161Z,25.20
2018-05-08T11:46:39.684Z,25.20
2018-05-08T11:49:07.205Z,25.60
2018-05-08T11:51:34.721Z,25.70
2018-05-08T11:54:02.267Z,25.90
2018-05-08T11:56:29.817Z,25.90
2018-05-08T11:58:57.339Z,25.80
2018-05-08T12:01:24.837Z,25.60
2018-05-08T12:03:53.134Z,26.00
2018-05-08T12:06:21.430Z,25.90
2018-05-08T12:08:48.958Z,25.90
2018-05-08T12:11:16.479Z,25.70
2018-05-08T12:13:44.000Z,25.80
2018-05-08T12:16:11.550Z,26.00
2018-05-08T12:18:39.072Z,25.70
2018-05-08T12:21:07.388Z,25.90
2018-05-08T12:23:34.914Z,26.00
2018-05-08T12:26:02.538Z,26.20
2018-05-08T12:28:30.032Z,26.30
2018-05-08T12:30:57.565Z,26.00
2018-05-08T12:33:25.062Z,26.30
2018-05-08T12:35:52.587Z,26.00
2018-05-08T12:38:20.094Z,26.00
2018-05-08T12:40:47.628Z,25.70
2018-05-08T12:43:15.276Z,25.70
2018-05-08T12:45:43.565Z,25.90
2018-05-08T12:50:43.952Z,25.90
2018-05-08T12:53:11.482Z,26.00
2018-05-08T12:55:39.007Z,25.90
2018-05-08T12:58:07.305Z,26.00
2018-05-08T13:00:35.600Z,26.20
2018-05-08T13:03:03.874Z,26.20
2018-05-08T13:05:31.462Z,26.20
2018-05-08T13:07:59.745Z,25.90
2018-05-08T13:10:28.034Z,26.20
2018-05-08T13:12:56.309Z,26.40
2018-05-08T13:15:23.827Z,26.40
2018-05-08T13:17:52.110Z,25.90
2018-05-08T13:20:19.663Z,25.90
2018-05-08T13:22:47.945Z,25.80
2018-05-08T13:25:15.492Z,25.80
2018-05-08T13:27:43.019Z,26.10
2018-05-08T13:30:10.590Z,26.40
2018-05-08T13:32:38.115Z,26.50
2018-05-08T13:35:05.701Z,26.50
2018-05-08T13:37:33.968Z,26.60
2018-05-08T13:40:01.495Z,26.60
2018-05-08T13:42:29.008Z,26.70
2018-05-08T13:44:56.517Z,26.60
2018-05-08T13:47:24.808Z,26.80
2018-05-08T13:49:53.077Z,26.80
2018-05-08T13:52:20.597Z,26.80
2018-05-08T13:54:48.122Z,26.70
2018-05-08T13:57:15.668Z,26.60
2018-05-08T13:59:43.190Z,26.50
2018-05-08T14:02:10.730Z,26.50
2018-05-08T14:04:39.009Z,26.60
2018-05-08T14:07:06.555Z,26.50
2018-05-08T14:09:34.055Z,26.30
2018-05-08T14:12:01.577Z,26.40
2018-05-08T14:14:29.094Z,26.40
2018-05-08T14:16:57.411Z,26.50
2018-05-08T14:19:25.788Z,26.40
2018-05-08T14:21:53.408Z,26.40
2018-05-08T14:24:20.919Z,26.60
2018-05-08T14:26:48.483Z,26.70
2018-05-08T14:29:15.975Z,26.80
2018-05-08T14:31:43.595Z,26.80
2018-05-08T14:34:11.037Z,26.50
2018-05-08T14:36:38.601Z,26.60
2018-05-08T14:39:06.101Z,26.70
2018-05-08T14:41:33.660Z,27.10
2018-05-08T14:44:01.939Z,26.90
2018-05-08T14:46:30.232Z,26.70
2018-05-08T14:48:58.516Z,26.90
2018-05-08T14:51:26.044Z,26.90
2018-05-08T14:53:53.582Z,26.90
2018-05-08T14:56:21.102Z,26.70
2018-05-08T14:58:49.464Z,26.70
2018-05-08T15:01:17.749Z,26.50
2018-05-08T15:03:45.249Z,26.50
2018-05-08T15:06:12.785Z,26.50
2018-05-08T15:08:40.355Z,26.60
2018-05-08T15:11:07.868Z,26.70
2018-05-08T15:13:35.713Z,26.80
2018-05-08T15:16:03.257Z,26.70
2018-05-08T15:18:31.569Z,26.50
2018-05-08T15:20:59.107Z,26.50
2018-05-08T15:23:26.719Z,26.60
2018-05-08T15:25:54.230Z,26.60
2018-05-08T15:28:21.797Z,26.50
2018-05-08T15:30:49.304Z,26.60
2018-05-08T15:33:17.602Z,26.70
2018-05-08T15:35:45.917Z,26.50
2018-05-08T15:38:13.440Z,26.50
2018-05-08T15:40:40.972Z,26.40
2018-05-08T15:43:08.497Z,26.30
2018-05-08T15:45:36.768Z,26.50
2018-05-08T15:48:04.289Z,26.40
2018-05-08T15:50:31.859Z,26.30
2018-05-08T15:52:59.433Z,26.20
2018-05-08T15:55:26.969Z,26.10
2018-05-08T15:57:55.295Z,26.40
2018-05-08T16:00:22.829Z,26.40
2018-05-08T16:02:50.353Z,26.30
2018-05-08T16:05:17.880Z,26.50
2018-05-08T16:07:46.168Z,26.30
2018-05-08T16:10:14.473Z,26.40
2018-05-08T16:12:42.213Z,26.40
2018-05-08T16:15:09.727Z,26.60
2018-05-08T16:17:38.021Z,26.70
2018-05-08T16:20:05.511Z,26.70
2018-05-08T16:22:33.038Z,26.60
2018-05-08T16:25:01.341Z,26.20
2018-05-08T16:27:28.869Z,26.20
2018-05-08T16:29:56.393Z,26.30
2018-05-08T16:32:23.946Z,26.70
2018-05-08T16:34:52.238Z,26.60
2018-05-08T16:37:20.531Z,26.60
2018-05-08T16:39:48.805Z,26.30
2018-05-08T16:42:16.378Z,26.30
2018-05-08T16:44:44.676Z,26.40
2018-05-08T16:47:12.986Z,26.50
2018-05-08T16:49:40.498Z,26.50
2018-05-08T16:52:08.033Z,26.60
2018-05-08T16:54:35.541Z,26.40
2018-05-08T16:57:03.053Z,26.30
2018-05-08T16:59:31.325Z,26.30
2018-05-08T17:01:58.838Z,26.20
2018-05-08T17:04:26.357Z,26.10
2018-05-08T17:06:53.877Z,26.00
2018-05-08T17:09:21.474Z,26.00
2018-05-08T17:11:48.922Z,26.00
2018-05-08T17:14:16.485Z,26.00
2018-05-08T17:16:43.992Z,26.00
2018-05-08T17:19:12.065Z,25.90
2018-05-08T17:21:39.824Z,25.90
2018-05-08T17:24:07.340Z,25.90
2018-05-08T17:26:34.919Z,25.80
2018-05-08T17:29:02.478Z,25.60
2018-05-08T17:31:29.994Z,25.50
2018-05-08T17:33:58.305Z,25.20
2018-05-08T17:36:25.818Z,25.20
2018-05-08T17:38:53.353Z,25.20
2018-05-08T17:41:20.890Z,25.20
2018-05-08T17:43:49.233Z,25.00
2018-05-08T17:46:16.995Z,25.00
2018-05-08T17:48:44.538Z,25.00
2018-05-08T17:51:12.823Z,24.80
2018-05-08T17:53:41.105Z,24.70
2018-05-08T17:56:09.375Z,24.60
2018-05-08T17:58:36.892Z,24.60
2018-05-08T18:01:04.405Z,24.60
2018-05-08T18:03:31.962Z,24.50
2018-05-08T18:05:59.465Z,24.50
2018-05-08T18:08:26.993Z,24.30
2018-05-08T18:10:54.495Z,24.30
2018-05-08T18:13:22.026Z,24.30
2018-05-08T18:15:49.546Z,24.10
2018-05-08T18:18:17.081Z,24.10
2018-05-08T18:20:44.627Z,24.00
2018-05-08T18:23:12.906Z,23.90
2018-05-08T18:25:41.246Z,23.70
2018-05-08T18:28:08.764Z,23.70
2018-05-08T18:30:37.060Z,23.60
2018-05-08T18:33:05.337Z,23.50
2018-05-08T18:35:32.842Z,23.50
2018-05-08T18:38:00.339Z,23.50
2018-05-08T18:40:27.870Z,23.40
2018-05-08T18:42:56.142Z,23.30
2018-05-08T18:45:23.655Z,23.20
2018-05-08T18:47:51.171Z,23.10
2018-05-08T18:50:18.700Z,23.10
2018-05-08T18:52:46.211Z,23.00
2018-05-08T18:55:13.721Z,22.90
2018-05-08T18:57:41.333Z,22.90
2018-05-08T19:00:14.454Z,22.80
2018-05-08T19:02:41.982Z,22.70
2018-05-08T19:05:09.545Z,22.60
2018-05-08T19:07:37.052Z,22.60
2018-05-08T19:10:04.611Z,22.50
2018-05-08T19:12:32.983Z,22.40
2018-05-08T19:15:06.149Z,22.40
2018-05-08T19:17:34.436Z,22.30
2018-05-08T19:20:06.806Z,22.20
2018-05-08T19:22:34.351Z,22.20
2018-05-08T19:25:01.893Z,22.10
2018-05-08T19:27:29.438Z,22.00
2018-05-08T19:30:02.547Z,21.90
2018-05-08T19:32:30.082Z,21.90
2018-05-08T19:35:03.403Z,21.80
2018-05-08T19:37:36.619Z,21.70
2018-05-08T19:40:04.153Z,21.60
2018-05-08T19:42:31.695Z,21.60
2018-05-08T19:45:00.009Z,21.50
2018-05-08T19:47:27.533Z,21.50
2018-05-08T19:49:55.065Z,21.40
2018-05-08T19:52:22.633Z,21.40
2018-05-08T19:54:50.116Z,21.30
2018-05-08T19:57:20.238Z,21.30
2018-05-08T19:59:47.799Z,21.20
2018-05-08T20:02:15.304Z,21.10
2018-05-08T20:04:42.837Z,21.10
2018-05-08T20:07:10.350Z,21.00
2018-05-08T20:09:37.882Z,20.80
2018-05-08T20:12:05.396Z,20.60
2018-05-08T20:14:32.945Z,20.50
2018-05-08T20:17:00.453Z,20.40
2018-05-08T20:19:27.999Z,20.30
2018-05-08T20:21:55.505Z,20.30
2018-05-08T20:24:23.009Z,20.20
2018-05-08T20:26:50.538Z,20.10
2018-05-08T20:29:18.054Z,20.10
2018-05-08T20:31:45.592Z,19.90
2018-05-08T20:34:13.894Z,19.70
2018-05-08T20:36:42.204Z,19.70
2018-05-08T20:39:09.713Z,19.70
2018-05-08T20:41:38.005Z,19.60
2018-05-08T20:44:05.505Z,19.60
2018-05-08T20:46:33.830Z,19.40
2018-05-08T20:49:01.438Z,19.50
2018-05-08T20:51:28.896Z,19.40
2018-05-08T20:53:56.403Z,19.40
2018-05-08T20:56:23.931Z,19.30
2018-05-08T20:58:51.550Z,19.20
2018-05-08T21:01:19.129Z,19.20
2018-05-08T21:03:46.677Z,19.20
2018-05-08T21:06:14.217Z,19.10
2018-05-08T21:08:41.729Z,19.20
2018-05-08T21:11:09.262Z,19.10
2018-05-08T21:13:36.780Z,19.10
2018-05-08T21:16:05.072Z,19.10
2018-05-08T21:18:33.342Z,19.10
2018-05-08T21:21:00.869Z,19.00
2018-05-08T21:23:28.379Z,19.00
2018-05-08T21:25:55.928Z,19.00
2018-05-08T21:28:29.033Z,18.90
2018-05-08T21:31:02.285Z,18.90
2018-05-08T21:33:29.790Z,18.90
2018-05-08T21:35:57.334Z,18.90
2018-05-08T21:38:25.657Z,18.80
2018-05-08T21:40:53.171Z,18.80
2018-05-08T21:43:20.690Z,18.80
2018-05-08T21:45:48.216Z,18.70
2018-05-08T21:48:15.723Z,18.70
2018-05-08T21:50:43.286Z,18.60
2018-05-08T21:53:11.899Z,18.50
2018-05-08T21:55:39.471Z,18.50
2018-05-08T21:58:07.744Z,18.30
2018-05-08T22:00:36.004Z,18.30
2018-05-08T22:05:37.511Z,18.30
2018-05-08T22:08:05.047Z,18.20
2018-05-08T22:10:32.597Z,18.20
2018-05-08T22:13:00.116Z,18.20
2018-05-08T22:15:27.625Z,18.20
2018-05-08T22:17:55.906Z,18.00
2018-05-08T22:20:24.169Z,17.90
2018-05-08T22:22:51.689Z,17.90
2018-05-08T22:25:19.184Z,17.80
2018-05-08T22:27:46.754Z,17.80
2018-05-08T22:30:14.257Z,17.80
2018-05-08T22:32:41.775Z,17.80
2018-05-08T22:35:09.284Z,17.90
2018-05-08T22:37:36.805Z,18.00
2018-05-08T22:40:04.344Z,18.00
2018-05-08T22:42:31.878Z,18.10
2018-05-08T22:44:59.445Z,18.10
2018-05-08T22:47:26.998Z,18.10
2018-05-08T22:49:54.507Z,18.20
2018-05-08T22:52:22.030Z,18.20
2018-05-08T22:54:50.292Z,18.10
2018-05-08T22:57:17.900Z,18.10
2018-05-08T22:59:46.125Z,18.00
2018-05-08T23:02:13.664Z,18.00
2018-05-08T23:04:41.178Z,17.80
2018-05-08T23:07:08.718Z,17.80
2018-05-08T23:09:36.242Z,17.80
2018-05-08T23:12:03.750Z,17.90
2018-05-08T23:14:31.280Z,17.90
2018-05-08T23:16:58.798Z,17.90
2018-05-08T23:19:26.317Z,17.90
2018-05-08T23:21:53.827Z,17.90
2018-05-08T23:24:22.118Z,17.80
2018-05-08T23:26:50.408Z,17.80
2018-05-08T23:29:18.733Z,17.70
2018-05-08T23:31:46.248Z,17.70
2018-05-08T23:34:13.783Z,17.70
2018-05-08T23:36:41.292Z,17.50
2018-05-08T23:39:08.850Z,17.40
2018-05-08T23:41:36.350Z,17.20
2018-05-08T23:44:04.889Z,16.90
2018-05-08T23:46:32.398Z,16.90
2018-05-08T23:48:59.929Z,16.70
2018-05-08T23:51:27.419Z,16.60
2018-05-08T23:53:54.936Z,16.60
2018-05-08T23:56:22.551Z,16.50
2018-05-08T23:58:50.071Z,16.40
